Time;durP1;ratioP1;P1;durP2;ratioP2;P2;SDS_P1;SDS_P2;PMS_P1;PMS_P2;Temp;Humidity;BMP_temperature;BMP_pressure;BME280_temperature;BME280_humidity;BME280_pressure;Samples;Min_cycle;Max_cycle;Signal;HPM_P1;HPM_P2
2021/11/06 00:00:06;;;;;;;19.85;9.77;;;;;;;20.48;42.93;101622.69;4425303;32;20507;-68
2021/11/06 00:02:32;;;;;;;16.08;10.13;;;;;;;20.65;42.84;101614.47;4421658;32;20046;-68
2021/11/06 00:04:58;;;;;;;16.12;9.50;;;;;;;20.79;42.46;101611.66;4424835;32;20046;-68
2021/11/06 00:07:23;;;;;;;16.67;8.93;;;;;;;20.60;42.66;101620.88;4418774;32;20116;-68
2021/11/06 00:09:49;;;;;;;21.12;9.40;;;;;;;20.27;43.54;101614.38;4422416;32;20462;-68
2021/11/06 00:12:15;;;;;;;16.65;9.98;;;;;;;20.61;42.58;101619.56;4420317;32;20422;-68
2021/11/06 00:14:42;;;;;;;17.83;9.75;;;;;;;20.47;43.19;101609.69;4419117;32;20084;-68
2021/11/06 00:17:07;;;;;;;15.20;9.45;;;;;;;20.79;42.62;101620.25;4417419;32;20089;-68
2021/11/06 00:19:33;;;;;;;23.40;12.45;;;;;;;21.10;41.78;101629.25;4417503;32;20323;-68
2021/11/06 00:21:59;;;;;;;19.37;10.43;;;;;;;21.18;41.73;101630.47;4420830;32;20072;-68
2021/11/06 00:24:25;;;;;;;12.73;8.10;;;;;;;20.78;42.59;101615.03;4414855;32;20054;-68
2021/11/06 00:26:50;;;;;;;11.18;6.78;;;;;;;20.67;42.56;101627.00;4417013;32;20119;-68
2021/11/06 00:29:17;;;;;;;10.30;6.90;;;;;;;20.52;42.93;101617.56;4417842;32;20054;-68
2021/11/06 00:31:43;;;;;;;13.02;7.07;;;;;;;20.56;43.12;101603.88;4419952;32;20069;-68
2021/11/06 00:34:09;;;;;;;13.50;6.70;;;;;;;20.90;42.15;101606.16;4417989;32;20077;-68
2021/11/06 00:36:35;;;;;;;10.77;6.12;;;;;;;20.70;42.61;101605.22;4420199;32;20197;-68
2021/11/06 00:39:02;;;;;;;10.07;5.97;;;;;;;20.45;42.89;101606.50;4419982;32;20037;-68
2021/11/06 00:41:28;;;;;;;11.63;5.62;;;;;;;20.80;42.19;101612.47;4419163;32;20802;-68
2021/11/06 00:43:54;;;;;;;11.27;5.32;;;;;;;20.51;42.71;101595.19;4422735;32;20080;-68
2021/11/06 00:46:19;;;;;;;9.93;5.70;;;;;;;20.53;42.82;101595.50;4420376;32;20506;-68
2021/11/06 00:48:45;;;;;;;10.05;5.35;;;;;;;20.53;42.55;101596.31;4419242;32;20033;-68
2021/11/06 00:51:10;;;;;;;10.10;5.95;;;;;;;20.13;43.52;101593.06;4419209;32;20470;-68
2021/11/06 00:53:36;;;;;;;8.82;5.00;;;;;;;20.37;42.82;101582.41;4418547;32;20058;-68
2021/11/06 00:56:02;;;;;;;12.52;5.47;;;;;;;20.58;42.59;101592.75;4420542;32;20525;-68
2021/11/06 00:58:29;;;;;;;10.90;5.00;;;;;;;20.71;42.31;101601.88;4420620;32;20045;-68
2021/11/06 01:00:55;;;;;;;8.43;5.00;;;;;;;20.73;42.12;101601.38;4422658;32;20030;-68
2021/11/06 01:03:20;;;;;;;9.95;5.22;;;;;;;20.76;41.87;101603.25;4421359;32;20172;-68
2021/11/06 01:05:46;;;;;;;10.55;4.60;;;;;;;21.09;41.41;101604.78;4420571;32;20046;-68
2021/11/06 01:08:13;;;;;;;8.20;4.32;;;;;;;21.19;41.11;101609.13;4420534;32;20134;-68
2021/11/06 01:10:39;;;;;;;6.45;4.30;;;;;;;21.10;40.98;101609.22;4423652;32;20438;-68
2021/11/06 01:13:05;;;;;;;8.73;4.03;;;;;;;21.16;41.15;101600.72;4423114;32;20061;-68
2021/11/06 01:15:31;;;;;;;8.43;4.15;;;;;;;21.16;41.13;101598.66;4423186;32;20112;-69
2021/11/06 01:17:58;;;;;;;5.93;4.00;;;;;;;21.06;40.91;101605.75;4418752;32;20030;-69
2021/11/06 01:20:24;;;;;;;9.30;4.30;;;;;;;21.10;41.18;101609.22;4417947;32;20076;-69
2021/11/06 01:22:49;;;;;;;8.05;3.70;;;;;;;21.25;40.80;101607.16;4421450;32;20145;-69
2021/11/06 01:25:15;;;;;;;10.00;3.90;;;;;;;20.97;41.25;101594.38;4420336;32;20316;-69
2021/11/06 01:27:42;;;;;;;7.85;4.32;;;;;;;21.16;41.01;101601.53;4419464;32;20404;-69
2021/11/06 01:30:09;;;;;;;6.57;4.07;;;;;;;21.11;40.97;101587.13;4418246;32;20489;-69
2021/11/06 01:32:37;;;;;;;9.63;4.82;;;;;;;21.03;41.30;101589.56;4423229;32;20435;-69
2021/11/06 01:35:05;;;;;;;6.82;4.32;;;;;;;21.18;40.75;101586.72;4421534;32;20099;-69
2021/11/06 01:37:31;;;;;;;7.32;4.43;;;;;;;21.39;40.28;101588.41;4417762;32;20064;-69
2021/11/06 01:39:57;;;;;;;7.43;3.97;;;;;;;21.48;40.14;101585.47;4423377;32;20078;-69
2021/11/06 01:42:25;;;;;;;5.40;3.28;;;;;;;20.90;41.30;101583.25;4423510;32;20120;-69
2021/11/06 01:44:51;;;;;;;7.78;3.22;;;;;;;20.81;41.43;101568.25;4419039;32;20073;-69
2021/11/06 01:47:17;;;;;;;6.68;3.58;;;;;;;21.04;41.15;101573.16;4416836;32;20081;-69
2021/11/06 01:49:43;;;;;;;6.03;3.45;;;;;;;21.11;41.25;101576.44;4419415;32;20529;-69
2021/11/06 01:52:09;;;;;;;6.53;2.85;;;;;;;20.95;41.37;101568.31;4419241;32;20067;-69
2021/11/06 01:54:35;;;;;;;6.20;3.17;;;;;;;20.85;41.47;101563.13;4419898;32;20068;-69
2021/11/06 01:57:01;;;;;;;5.72;3.42;;;;;;;20.79;41.56;101562.22;4420552;32;20099;-69
2021/11/06 01:59:27;;;;;;;6.25;3.42;;;;;;;21.09;41.11;101563.91;4421115;32;20166;-69
2021/11/06 02:01:53;;;;;;;6.90;3.08;;;;;;;21.04;41.31;101571.09;4423025;32;20105;-69
2021/11/06 02:04:18;;;;;;;5.78;3.03;;;;;;;21.08;41.20;101563.09;4420444;32;20050;-69
2021/11/06 02:06:44;;;;;;;12.98;5.82;;;;;;;21.24;40.96;101564.72;4419691;32;20077;-69
2021/11/06 02:09:10;;;;;;;17.62;8.18;;;;;;;21.23;40.96;101566.00;4419946;32;20049;-69
2021/11/06 02:11:37;;;;;;;18.80;9.65;;;;;;;21.23;40.93;101563.91;4419055;32;20095;-69
2021/11/06 02:14:03;;;;;;;22.05;10.55;;;;;;;21.39;40.76;101549.09;4418762;32;20581;-69
2021/11/06 02:16:29;;;;;;;26.12;12.73;;;;;;;21.46;40.46;101548.72;4420664;32;20041;-69
2021/11/06 02:18:55;;;;;;;25.05;12.37;;;;;;;21.51;40.39;101544.38;4418711;32;21488;-69
2021/11/06 02:21:21;;;;;;;20.20;10.45;;;;;;;21.54;40.33;101555.59;4417582;32;20057;-69
2021/11/06 02:23:48;;;;;;;10.63;5.47;;;;;;;21.61;40.25;101552.37;4417633;32;20392;-69
2021/11/06 02:26:16;;;;;;;8.30;4.00;;;;;;;21.59;40.32;101543.47;4419483;32;20084;-69
2021/11/06 02:28:45;;;;;;;6.62;2.65;;;;;;;21.68;40.06;101543.34;4418982;32;20404;-69
2021/11/06 02:31:12;;;;;;;6.28;2.83;;;;;;;21.47;40.31;101544.56;4419927;32;20109;-69
2021/11/06 02:33:38;;;;;;;7.07;2.92;;;;;;;21.58;40.20;101535.37;4416925;32;20057;-69
2021/11/06 02:36:04;;;;;;;5.10;2.55;;;;;;;21.59;40.12;101540.59;4420709;32;20098;-69
2021/11/06 02:38:30;;;;;;;6.05;2.58;;;;;;;21.55;40.22;101539.22;4417802;32;20084;-69
2021/11/06 02:40:56;;;;;;;5.90;2.45;;;;;;;21.54;40.18;101534.78;4419140;32;20438;-69
2021/11/06 02:43:22;;;;;;;8.13;3.20;;;;;;;21.61;40.08;101549.50;4420755;32;20089;-69
2021/11/06 02:45:48;;;;;;;6.18;3.12;;;;;;;21.48;40.11;101533.91;4418668;32;20088;-69
2021/11/06 02:48:14;;;;;;;6.15;2.40;;;;;;;21.48;40.12;101537.53;4421675;32;20436;-69
2021/11/06 02:50:40;;;;;;;4.25;2.80;;;;;;;21.08;40.75;101537.34;4416380;32;20112;-69
2021/11/06 02:53:07;;;;;;;4.25;2.58;;;;;;;21.09;40.68;101530.34;4417261;32;20110;-69
2021/11/06 02:55:33;;;;;;;6.55;3.60;;;;;;;21.25;40.73;101526.19;4416207;32;20088;-69
2021/11/06 02:57:58;;;;;;;4.87;2.87;;;;;;;21.21;40.66;101526.41;4419996;32;20033;-69
2021/11/06 03:00:27;;;;;;;7.65;3.00;;;;;;;21.32;40.49;101525.78;4416156;32;20038;-69
2021/11/06 03:02:54;;;;;;;5.70;2.92;;;;;;;21.43;40.56;101521.06;4420195;32;20130;-70
2021/11/06 03:05:20;;;;;;;4.18;2.22;;;;;;;21.46;40.37;101519.28;4418500;32;20083;-71
2021/11/06 03:07:47;;;;;;;5.12;2.78;;;;;;;21.16;40.69;101515.66;4417063;32;20107;-71
2021/11/06 03:10:14;;;;;;;4.80;2.40;;;;;;;21.16;40.73;101515.66;4421637;32;20120;-70
2021/11/06 03:12:40;;;;;;;7.60;2.37;;;;;;;21.15;40.66;101516.94;4415901;32;20050;-71
2021/11/06 03:15:07;;;;;;;8.00;2.83;;;;;;;21.13;40.66;101510.91;4418434;32;20097;-71
2021/11/06 03:17:33;;;;;;;5.03;2.65;;;;;;;20.97;41.21;101497.09;4413897;32;20586;-71
2021/11/06 03:19:59;;;;;;;3.92;2.20;;;;;;;21.00;41.21;101493.25;4418995;32;20474;-71
2021/11/06 03:22:24;;;;;;;3.95;2.50;;;;;;;20.88;40.94;101494.28;4422531;32;20068;-71
2021/11/06 03:24:50;;;;;;;3.92;2.12;;;;;;;20.79;41.38;101494.37;4419208;32;20427;-71
2021/11/06 03:27:16;;;;;;;6.53;2.50;;;;;;;20.94;41.31;101483.75;4417175;32;20045;-71
2021/11/06 03:29:42;;;;;;;4.30;2.50;;;;;;;20.82;41.51;101478.28;4418088;32;20045;-71
2021/11/06 03:32:09;;;;;;;6.55;2.25;;;;;;;20.82;41.51;101473.38;4410304;32;20103;-71
2021/11/06 03:34:36;;;;;;;5.78;2.62;;;;;;;20.88;41.43;101470.59;4417541;32;20072;-71
2021/11/06 03:37:02;;;;;;;4.95;2.20;;;;;;;20.75;41.72;101476.63;4417642;32;20481;-71
2021/11/06 03:39:28;;;;;;;4.15;2.47;;;;;;;20.60;42.09;101475.00;4413817;32;20049;-71
2021/11/06 03:41:54;;;;;;;4.70;2.35;;;;;;;20.56;41.98;101469.47;4420126;32;20084;-71
2021/11/06 03:44:19;;;;;;;5.07;2.37;;;;;;;20.47;42.15;101452.41;4417675;32;20432;-71
2021/11/06 03:46:45;;;;;;;5.68;2.65;;;;;;;20.55;42.08;101458.50;4417490;32;20094;-71
2021/11/06 03:49:11;;;;;;;7.22;2.70;;;;;;;20.44;42.36;101464.81;4417369;32;20110;-71
2021/11/06 03:51:37;;;;;;;5.93;2.28;;;;;;;20.79;41.65;101454.31;4416077;32;20114;-71
2021/11/06 03:54:03;;;;;;;8.82;2.42;;;;;;;20.83;41.49;101449.19;4417738;32;20388;-71
2021/11/06 03:56:29;;;;;;;6.55;2.55;;;;;;;20.74;41.54;101449.28;4418923;32;20101;-71
2021/11/06 03:58:55;;;;;;;5.03;2.40;;;;;;;20.46;42.28;101458.62;4417968;32;20108;-70
2021/11/06 04:01:22;;;;;;;7.93;2.97;;;;;;;20.33;42.77;101452.34;4417096;32;20062;-71
2021/11/06 04:03:48;;;;;;;4.95;2.50;;;;;;;20.12;43.10;101445.69;4416214;32;20128;-71
2021/11/06 04:06:15;;;;;;;9.13;3.28;;;;;;;19.91;43.55;101432.47;4420204;32;20052;-71
2021/11/06 04:08:41;;;;;;;8.77;2.87;;;;;;;20.07;43.28;101436.97;4417364;32;20058;-71
2021/11/06 04:11:08;;;;;;;6.78;2.53;;;;;;;20.08;43.12;101441.41;4417050;32;20076;-70
2021/11/06 04:13:35;;;;;;;7.95;2.90;;;;;;;19.87;43.46;101437.59;4417518;32;20046;-70
2021/11/06 04:16:00;;;;;;;6.32;3.08;;;;;;;20.09;43.18;101445.88;4420563;32;20112;-70
2021/11/06 04:18:26;;;;;;;7.95;2.85;;;;;;;20.02;43.28;101431.94;4419262;32;20053;-71
2021/11/06 04:20:52;;;;;;;10.45;2.97;;;;;;;20.15;42.96;101435.38;4422160;32;20685;-71
2021/11/06 04:23:18;;;;;;;7.40;2.65;;;;;;;20.08;43.27;101435.69;4420033;32;20038;-70
2021/11/06 04:25:45;;;;;;;4.85;2.85;;;;;;;19.96;43.41;101428.16;4423176;32;20041;-70
2021/11/06 04:28:19;;;;;;;4.45;2.70;;;;;;;20.04;43.23;101435.09;4420186;32;20070;-70
2021/11/06 04:30:45;;;;;;;5.28;3.00;;;;;;;19.91;43.35;101431.72;4420435;32;20470;-71
2021/11/06 04:33:11;;;;;;;5.75;3.10;;;;;;;20.39;42.53;101441.81;4423534;32;20068;-71
2021/11/06 04:35:36;;;;;;;4.93;2.60;;;;;;;20.52;42.28;101448.84;4420123;32;20694;-71
2021/11/06 04:38:02;;;;;;;7.15;3.50;;;;;;;20.44;42.41;101461.16;4420819;32;20030;-71
2021/11/06 04:40:28;;;;;;;7.97;2.78;;;;;;;20.73;41.68;101450.56;4422000;32;20057;-71
2021/11/06 04:42:54;;;;;;;5.37;2.70;;;;;;;20.57;41.97;101441.66;4420133;32;20072;-71
2021/11/06 04:45:19;;;;;;;7.05;2.83;;;;;;;20.21;42.75;101444.81;4420944;32;20071;-70
2021/11/06 04:47:45;;;;;;;8.38;3.17;;;;;;;20.32;42.71;101445.88;4418777;32;20030;-71
2021/11/06 04:50:11;;;;;;;6.68;2.53;;;;;;;19.97;43.63;101439.09;4422702;32;20450;-71
2021/11/06 04:52:38;;;;;;;4.07;2.20;;;;;;;20.27;42.80;101446.53;4418463;32;20038;-70
2021/11/06 04:55:07;;;;;;;11.48;3.12;;;;;;;20.50;42.56;101447.78;4422711;32;20124;-70
2021/11/06 04:57:33;;;;;;;8.23;3.08;;;;;;;20.83;41.86;101449.19;4422216;32;20073;-70
2021/11/06 04:59:58;;;;;;;6.10;2.20;;;;;;;20.73;41.85;101446.91;4419437;32;20095;-70
2021/11/06 05:02:24;;;;;;;9.95;2.72;;;;;;;20.71;41.76;101435.94;4419772;32;20158;-70
2021/11/06 05:04:50;;;;;;;6.43;2.50;;;;;;;20.30;42.46;101436.19;4422049;32;21496;-70
2021/11/06 05:07:15;;;;;;;7.65;2.17;;;;;;;19.70;43.72;101425.03;4419193;32;20049;-70
2021/11/06 05:09:43;;;;;;;7.07;2.55;;;;;;;19.99;43.22;101435.75;4419150;32;20165;-70
2021/11/06 05:12:11;;;;;;;3.80;1.98;;;;;;;20.27;42.66;101437.97;4421498;32;20101;-70
2021/11/06 05:14:37;;;;;;;6.80;2.47;;;;;;;20.57;42.21;101447.37;4422115;32;20055;-70
2021/11/06 05:17:02;;;;;;;10.13;2.50;;;;;;;20.62;41.80;101452.44;4418287;32;20049;-70
2021/11/06 05:19:28;;;;;;;8.25;2.37;;;;;;;20.89;41.57;101458.66;4421002;32;20046;-70
2021/11/06 05:21:54;;;;;;;7.75;2.50;;;;;;;20.55;42.54;101455.66;4418486;32;20049;-69
2021/11/06 05:24:20;;;;;;;5.82;2.50;;;;;;;20.26;43.62;101444.97;4419577;32;20025;-69
2021/11/06 05:26:46;;;;;;;5.65;2.62;;;;;;;20.29;43.69;101443.97;4418533;32;20687;-69
2021/11/06 05:29:12;;;;;;;6.12;2.75;;;;;;;20.04;44.44;101429.38;4418136;32;20077;-69
2021/11/06 05:31:39;;;;;;;4.90;2.70;;;;;;;19.82;44.61;101431.75;4419904;32;20119;-69
2021/11/06 05:34:06;;;;;;;7.32;3.25;;;;;;;19.81;45.15;101425.25;4419453;32;20243;-69
2021/11/06 05:36:32;;;;;;;6.72;2.78;;;;;;;19.65;45.56;101409.34;4417884;32;20104;-69
2021/11/06 05:38:58;;;;;;;6.00;3.40;;;;;;;19.46;45.81;101410.69;4420959;32;20041;-69
2021/11/06 05:41:24;;;;;;;7.50;4.55;;;;;;;19.45;45.80;101406.28;4420116;32;20073;-69
2021/11/06 05:43:50;;;;;;;9.05;4.40;;;;;;;18.95;46.98;101398.53;4424264;32;20394;-69
2021/11/06 05:46:16;;;;;;;7.78;4.50;;;;;;;18.64;47.60;101391.50;4419813;32;20046;-69
2021/11/06 05:48:42;;;;;;;13.38;4.57;;;;;;;18.53;48.25;101385.50;4419559;32;20390;-68
2021/11/06 05:51:08;;;;;;;12.75;5.18;;;;;;;18.65;47.78;101391.00;4420947;32;20571;-68
2021/11/06 05:53:33;;;;;;;7.15;4.60;;;;;;;18.66;48.04;101389.75;4419228;32;20070;-68
2021/11/06 05:55:59;;;;;;;8.77;4.85;;;;;;;18.63;47.64;101384.22;4418352;32;20056;-68
2021/11/06 05:58:25;;;;;;;9.32;5.03;;;;;;;18.75;47.75;101380.38;4423452;32;20084;-68
2021/11/06 06:00:51;;;;;;;13.50;5.35;;;;;;;18.65;47.96;101381.69;4418410;32;20038;-68
2021/11/06 06:03:17;;;;;;;13.82;5.50;;;;;;;18.45;48.29;101373.66;4420869;32;20049;-68
2021/11/06 06:05:44;;;;;;;7.68;5.00;;;;;;;18.25;48.60;101376.16;4416593;32;20536;-68
2021/11/06 06:08:10;;;;;;;12.13;4.78;;;;;;;18.26;48.82;101372.06;4418719;32;20513;-68
2021/11/06 06:10:37;;;;;;;11.20;5.47;;;;;;;18.25;48.95;101369.69;4422928;32;20115;-68
2021/11/06 06:13:03;;;;;;;16.77;5.97;;;;;;;18.24;48.91;101360.34;4419808;32;20041;-68
2021/11/06 06:15:29;;;;;;;9.63;5.35;;;;;;;18.14;49.24;101361.63;4415019;32;20050;-67
2021/11/06 06:17:56;;;;;;;11.20;5.80;;;;;;;18.07;49.38;101355.47;4419209;32;20037;-68
2021/11/06 06:20:22;;;;;;;10.23;5.32;;;;;;;17.81;49.71;101347.22;4419244;32;20083;-68
2021/11/06 06:22:48;;;;;;;9.63;5.03;;;;;;;18.12;49.35;101338.50;4417841;32;20107;-68
2021/11/06 06:25:15;;;;;;;8.20;4.85;;;;;;;17.84;49.92;101334.09;4419614;32;20037;-68
2021/11/06 06:27:42;;;;;;;12.50;4.55;;;;;;;18.38;48.86;101331.22;4421115;32;20387;-68
2021/11/06 06:30:12;;;;;;;11.07;4.93;;;;;;;18.27;48.94;101332.94;4419430;32;20130;-68
2021/11/06 06:32:38;;;;;;;9.35;5.00;;;;;;;18.72;48.01;101330.78;4418288;32;20394;-68
2021/11/06 06:35:06;;;;;;;9.32;4.90;;;;;;;18.48;48.43;101334.84;4415983;32;20105;-68
2021/11/06 06:37:32;;;;;;;8.13;4.40;;;;;;;18.69;47.72;101339.53;4416273;32;20069;-68
2021/11/06 06:39:58;;;;;;;7.80;4.43;;;;;;;18.63;47.91;101333.69;4420852;32;20037;-68
2021/11/06 06:42:24;;;;;;;10.95;5.40;;;;;;;18.20;48.61;101336.94;4417892;32;20077;-68
2021/11/06 06:44:51;;;;;;;9.05;4.97;;;;;;;18.13;48.91;101337.25;4420281;32;20433;-68
2021/11/06 06:47:16;;;;;;;12.32;4.47;;;;;;;18.06;49.31;101322.53;4418372;32;20066;-68
2021/11/06 06:49:42;;;;;;;9.70;4.50;;;;;;;17.91;49.37;101328.06;4419682;32;20427;-68
2021/11/06 06:52:08;;;;;;;9.70;4.15;;;;;;;17.83;49.34;101330.44;4418631;32;20105;-68
2021/11/06 06:54:34;;;;;;;8.25;4.50;;;;;;;17.87;49.50;101330.31;4419209;32;20069;-68
2021/11/06 06:57:00;;;;;;;13.27;4.57;;;;;;;17.99;49.26;101331.41;4421106;32;20109;-68
2021/11/06 06:59:26;;;;;;;10.77;4.70;;;;;;;17.85;49.46;101333.62;4421249;32;20093;-68
2021/11/06 07:01:52;;;;;;;8.38;3.87;;;;;;;18.02;48.84;101322.72;4417276;32;20140;-68
2021/11/06 07:04:18;;;;;;;9.15;4.43;;;;;;;18.07;48.68;101333.44;4413836;32;20054;-68
2021/11/06 07:06:47;;;;;;;7.12;4.15;;;;;;;18.05;49.05;101324.59;4417930;32;20057;-68
2021/11/06 07:09:12;;;;;;;11.68;4.37;;;;;;;18.13;48.62;101323.00;4418570;32;20108;-68
2021/11/06 07:11:38;;;;;;;8.32;3.97;;;;;;;17.84;49.27;101326.34;4424730;32;20081;-68
2021/11/06 07:14:04;;;;;;;11.77;4.75;;;;;;;17.90;49.29;101309.41;4417528;32;20098;-68
2021/11/06 07:16:30;;;;;;;6.95;4.12;;;;;;;17.68;49.85;101312.41;4419347;32;20436;-68
2021/11/06 07:18:55;;;;;;;7.80;4.43;;;;;;;17.74;49.68;101310.53;4417147;32;20468;-68
2021/11/06 07:21:21;;;;;;;8.32;4.10;;;;;;;17.91;49.26;101319.53;4417968;32;20096;-68
2021/11/06 07:23:47;;;;;;;9.93;3.87;;;;;;;17.60;49.89;101316.84;4419238;32;20098;-69
2021/11/06 07:26:13;;;;;;;11.00;3.87;;;;;;;17.79;49.54;101314.78;4421776;32;20174;-69
2021/11/06 07:28:39;;;;;;;6.82;4.53;;;;;;;18.19;48.68;101326.78;4417819;32;20080;-71
2021/11/06 07:31:05;;;;;;;7.68;4.03;;;;;;;17.98;48.97;101313.50;4417100;32;20090;-69
2021/11/06 07:33:31;;;;;;;6.93;4.10;;;;;;;18.16;48.40;101319.19;4417237;32;20125;-69
2021/11/06 07:35:57;;;;;;;6.82;4.22;;;;;;;18.02;48.75;101321.91;4418071;32;20058;-69
2021/11/06 07:38:23;;;;;;;7.28;4.00;;;;;;;18.17;48.32;101325.69;4416782;32;20175;-68
2021/11/06 07:40:49;;;;;;;8.23;3.45;;;;;;;18.28;48.17;101321.06;4419807;32;20101;-68
2021/11/06 07:43:15;;;;;;;7.93;3.67;;;;;;;18.21;47.81;101321.41;4419532;32;20081;-68
2021/11/06 07:45:41;;;;;;;23.70;3.75;;;;;;;18.60;47.05;101328.97;4418888;32;20033;-68
2021/11/06 07:48:08;;;;;;;9.25;3.12;;;;;;;18.61;46.71;101321.19;4422213;32;20068;-69
2021/11/06 07:50:34;;;;;;;5.32;3.00;;;;;;;18.72;46.59;101330.03;4418889;32;20111;-69
2021/11/06 07:53:01;;;;;;;11.80;3.30;;;;;;;18.84;45.86;101337.59;4423192;32;20097;-69
2021/11/06 07:55:27;;;;;;;8.18;3.42;;;;;;;19.05;45.77;101328.75;4422089;32;20074;-70
2021/11/06 07:57:53;;;;;;;7.05;3.08;;;;;;;19.01;45.63;101338.75;4422574;32;20112;-70
2021/11/06 08:00:19;;;;;;;9.27;2.97;;;;;;;19.22;45.23;101334.84;4419236;32;20111;-70
2021/11/06 08:02:46;;;;;;;4.30;2.30;;;;;;;19.15;44.95;101343.78;4420691;32;20102;-70
2021/11/06 08:05:14;;;;;;;8.30;2.33;;;;;;;19.56;44.30;101335.16;4420351;32;20072;-70
2021/11/06 08:07:41;;;;;;;8.63;2.15;;;;;;;19.61;44.08;101319.41;4417113;32;20049;-69
2021/11/06 08:10:08;;;;;;;6.62;1.65;;;;;;;19.45;44.35;101323.47;4421302;32;20092;-69
2021/11/06 08:12:37;;;;;;;4.28;1.73;;;;;;;19.81;43.29;101328.13;4421320;32;20100;-69
2021/11/06 08:15:04;;;;;;;4.65;1.95;;;;;;;19.75;43.16;101316.59;4419646;32;20172;-69
2021/11/06 08:17:30;;;;;;;4.72;2.17;;;;;;;19.70;43.61;101319.34;4421223;32;20085;-69
2021/11/06 08:19:56;;;;;;;4.90;2.53;;;;;;;19.89;43.33;101314.25;4419561;32;20081;-69
2021/11/06 08:22:22;;;;;;;4.20;2.15;;;;;;;19.91;43.42;101301.06;4423908;32;20102;-69
2021/11/06 08:24:48;;;;;;;7.28;2.37;;;;;;;19.98;43.23;101295.00;4420291;32;20102;-69
2021/11/06 08:27:14;;;;;;;9.98;2.40;;;;;;;19.83;43.46;101294.16;4420141;32;20108;-69
2021/11/06 08:29:40;;;;;;;5.12;2.05;;;;;;;19.82;43.43;101286.09;4421157;32;20073;-69
2021/11/06 08:32:07;;;;;;;6.80;2.45;;;;;;;19.89;43.54;101268.56;4417832;32;20081;-69
2021/11/06 08:34:33;;;;;;;3.08;2.00;;;;;;;20.10;42.98;101287.41;4420886;32;20142;-69
2021/11/06 08:36:59;;;;;;;5.85;2.20;;;;;;;19.50;43.90;101291.41;4419903;32;20449;-69
2021/11/06 08:39:25;;;;;;;5.37;2.28;;;;;;;19.93;43.18;101283.44;4421193;32;20085;-69
2021/11/06 08:41:52;;;;;;;5.32;2.00;;;;;;;20.26;42.48;101279.19;4423471;32;20077;-69
2021/11/06 08:44:19;;;;;;;2.92;1.50;;;;;;;20.53;42.20;101281.72;4419591;32;20085;-69
2021/11/06 08:46:47;;;;;;;5.37;1.90;;;;;;;20.14;42.46;101270.87;4419677;32;20069;-69
2021/11/06 08:49:14;;;;;;;3.65;1.45;;;;;;;20.24;42.05;101283.78;4419892;32;20049;-69
2021/11/06 08:51:42;;;;;;;4.55;1.80;;;;;;;20.38;42.06;101277.28;4420929;32;20042;-69
2021/11/06 08:54:08;;;;;;;3.53;1.73;;;;;;;20.50;41.83;101270.50;4420358;32;20076;-69
2021/11/06 08:56:34;;;;;;;4.82;1.60;;;;;;;20.02;42.46;101267.00;4419007;32;20125;-69
2021/11/06 08:58:59;;;;;;;4.70;1.90;;;;;;;20.08;42.21;101264.25;4419724;32;20485;-69
2021/11/06 09:01:25;;;;;;;7.37;1.25;;;;;;;20.29;41.91;101269.62;4420567;32;20172;-69
2021/11/06 09:03:52;;;;;;;4.95;1.20;;;;;;;20.43;41.36;101265.19;4421884;32;20158;-69
2021/11/06 09:06:19;;;;;;;3.12;1.08;;;;;;;20.38;41.30;101263.00;4417533;32;20050;-69
2021/11/06 09:08:46;;;;;;;10.95;1.58;;;;;;;20.51;41.08;101240.59;4421529;32;20079;-69
2021/11/06 09:11:14;;;;;;;2.60;1.23;;;;;;;20.84;40.42;101236.19;4419744;32;20489;-69
2021/11/06 09:13:43;;;;;;;4.55;1.27;;;;;;;20.71;40.49;101238.59;4417613;32;20138;-69
2021/11/06 09:16:10;;;;;;;7.47;1.55;;;;;;;21.07;39.99;101240.97;4420066;32;20378;-69
2021/11/06 09:18:38;;;;;;;6.57;1.48;;;;;;;21.18;39.72;101235.41;4418918;32;20034;-69
2021/11/06 09:21:04;;;;;;;5.18;1.45;;;;;;;21.40;39.19;101224.25;4422359;32;20162;-69
2021/11/06 09:23:30;;;;;;;4.55;0.80;;;;;;;21.05;39.42;101234.94;4419212;32;20524;-69
2021/11/06 09:25:56;;;;;;;4.53;1.00;;;;;;;21.06;39.29;101222.25;4422380;32;20045;-70
2021/11/06 09:28:25;;;;;;;4.55;1.25;;;;;;;21.07;39.04;101220.16;4424400;32;20182;-69
2021/11/06 09:30:51;;;;;;;2.47;0.70;;;;;;;21.01;39.04;101214.34;4420572;32;20105;-69
2021/11/06 09:33:17;;;;;;;3.90;1.40;;;;;;;20.93;39.07;101203.81;4419850;32;20085;-69
2021/11/06 09:35:43;;;;;;;4.40;0.95;;;;;;;20.53;39.65;101198.00;4422781;32;20046;-69
2021/11/06 09:38:11;;;;;;;3.53;0.80;;;;;;;20.39;39.92;101213.09;4421063;32;20076;-69
2021/11/06 09:40:37;;;;;;;1.92;0.70;;;;;;;20.53;39.98;101204.53;4420488;32;20148;-69
2021/11/06 09:43:03;;;;;;;3.28;1.10;;;;;;;20.58;40.09;101197.28;4418455;32;20107;-69
2021/11/06 09:45:29;;;;;;;5.55;1.00;;;;;;;20.66;39.63;101187.81;4419539;32;20095;-69
2021/11/06 09:47:55;;;;;;;4.75;1.00;;;;;;;20.87;39.45;101180.06;4419913;32;20742;-69
2021/11/06 09:50:23;;;;;;;3.00;1.02;;;;;;;20.67;39.96;101177.16;4419078;32;20139;-69
2021/11/06 09:52:51;;;;;;;2.30;0.80;;;;;;;20.39;40.59;101171.03;4420868;32;20116;-69
2021/11/06 09:55:21;;;;;;;10.48;1.62;;;;;;;20.37;40.57;101175.66;4421111;32;20081;-69
2021/11/06 09:57:48;;;;;;;4.62;0.88;;;;;;;20.84;40.07;101178.97;4416502;32;20107;-69
2021/11/06 10:00:18;;;;;;;3.20;0.95;;;;;;;20.62;40.55;101170.06;4419860;32;20126;-69
2021/11/06 10:02:44;;;;;;;2.67;0.88;;;;;;;20.43;41.14;101167.97;4420542;32;20115;-70
2021/11/06 10:05:12;;;;;;;4.53;1.00;;;;;;;20.60;40.68;101172.66;4418154;32;20536;-69
2021/11/06 10:07:39;;;;;;;3.58;1.08;;;;;;;20.54;40.95;101160.34;4416580;32;20118;-69
2021/11/06 10:10:12;;;;;;;4.30;1.40;;;;;;;20.51;41.09;101155.63;4419082;32;20053;-69
2021/11/06 10:15:24;;;;;;;3.50;1.05;;;;;;;21.44;40.26;101156.09;3958630;32;15145110;-69
2021/11/06 10:17:51;;;;;;;4.60;1.08;;;;;;;21.44;40.26;101156.09;4419823;32;20111;-69
2021/11/06 10:22:54;;;;;;;2.17;1.05;;;;;;;20.67;41.80;101137.91;3986298;31;15707908;-69
2021/11/06 10:25:21;;;;;;;6.95;1.30;;;;;;;20.67;41.80;101137.91;4463985;32;20122;-69
2021/11/06 10:28:05;;;;;;;3.25;1.08;;;;;;;20.40;42.31;101126.84;4462794;32;20068;-69
2021/11/06 10:30:36;;;;;;;6.55;1.55;;;;;;;20.55;41.87;101126.78;4458974;32;20067;-69
2021/11/06 10:35:40;;;;;;;5.80;2.15;;;;;;;20.88;41.88;101136.62;3984602;32;15015643;-68
2021/11/06 10:38:12;;;;;;;4.53;1.75;;;;;;;20.88;41.88;101136.62;4438326;32;20063;-69
2021/11/06 10:43:24;;;;;;;3.90;1.33;;;;;;;20.54;42.40;101117.44;3982599;32;15022958;-69
2021/11/06 10:45:54;;;;;;;4.68;1.40;;;;;;;20.54;42.40;101117.44;4435909;32;20587;-69
2021/11/06 10:48:23;;;;;;;4.65;1.35;;;;;;;20.29;42.93;101112.41;4431800;32;20042;-68
2021/11/06 10:59:00;;;;;;;6.20;1.77;;;;;;;20.37;43.16;101130.69;3984624;32;15022182;-69
2021/11/06 11:01:53;;;;;;;2.05;1.20;;;;;;;20.35;43.94;101138.22;4442643;32;20111;-69
2021/11/06 11:04:20;;;;;;;5.47;1.30;;;;;;;20.20;44.30;101138.25;4439728;32;20085;-69
2021/11/06 11:06:50;;;;;;;6.95;1.85;;;;;;;20.10;44.58;101118.81;4440791;32;20067;-69
2021/11/06 11:09:19;;;;;;;5.03;1.60;;;;;;;20.35;44.05;101098.19;4439915;32;20021;-69
2021/11/06 11:11:46;;;;;;;8.50;1.35;;;;;;;20.58;43.47;101089.41;4440528;32;20762;-69
2021/11/06 11:14:17;;;;;;;4.10;1.50;;;;;;;19.92;44.90;101073.34;4440052;32;20103;-69
2021/11/06 11:17:01;;;;;;;5.30;1.45;;;;;;;20.24;44.50;101052.28;4438885;32;20041;-69
2021/11/06 11:19:44;;;;;;;6.97;1.30;;;;;;;20.45;43.70;101051.81;4439452;32;20449;-69
2021/11/06 11:22:29;;;;;;;8.25;1.58;;;;;;;20.63;43.42;101039.31;4441076;32;20067;-69
2021/11/06 11:24:56;;;;;;;4.40;1.40;;;;;;;20.97;42.92;101033.50;4440483;32;20049;-69
2021/11/06 11:27:24;;;;;;;5.43;1.20;;;;;;;20.50;43.56;101030.31;4440341;32;20038;-69
2021/11/06 11:29:50;;;;;;;4.53;1.50;;;;;;;20.95;43.03;101030.37;4440619;32;20133;-69
2021/11/06 11:32:16;;;;;;;4.78;1.65;;;;;;;20.97;42.67;101024.94;4440973;32;20099;-69
2021/11/06 11:34:44;;;;;;;5.32;1.45;;;;;;;21.01;42.22;101011.19;4438758;32;20064;-69
2021/11/06 11:37:10;;;;;;;8.82;3.00;;;;;;;21.44;41.68;101001.44;4440001;32;20374;-69